Time;durP1;ratioP1;P1;durP2;ratioP2;P2;SDS_P1;SDS_P2;PMS_P1;PMS_P2;Temp;Humidity;BMP_temperature;BMP_pressure;BME280_temperature;BME280_humidity;BME280_pressure;Samples;Min_cycle;Max_cycle;Signal;HPM_P1;HPM_P2
2021/12/29 00:01:13;;;;;;;63.58;25.42;;;;;;;;;;9989083;29;20541;-58
2021/12/29 00:06:11;;;;;;;64.80;26.30;;;;;;;;;;9990975;29;20080;-59
2021/12/29 00:11:11;;;;;;;51.22;26.02;;;;;;;;;;10001685;29;20072;-60
2021/12/29 00:16:09;;;;;;;57.33;23.27;;;;;;;;;;9988065;29;20079;-59
2021/12/29 00:21:08;;;;;;;41.78;23.75;;;;;;;;;;10012459;29;20075;-59
2021/12/29 00:26:06;;;;;;;43.63;24.23;;;;;;;;;;10019387;29;20103;-61
2021/12/29 00:31:06;;;;;;;51.28;21.85;;;;;;;;;;10024593;29;20083;-58
2021/12/29 00:36:23;;;;;;;45.03;23.50;;;;;;;;;;9997342;29;20087;-59
2021/12/29 00:41:22;;;;;;;42.20;22.27;;;;;;;;;;10010740;29;20462;-58
2021/12/29 00:46:24;;;;;;;45.33;24.15;;;;;;;;;;10022080;29;20082;-58
2021/12/29 00:51:22;;;;;;;44.35;22.13;;;;;;;;;;9995933;29;20067;-58
2021/12/29 00:56:21;;;;;;;36.92;19.83;;;;;;;;;;9989198;29;20072;-58
2021/12/29 01:01:19;;;;;;;40.97;20.98;;;;;;;;;;9989625;29;20087;-58
2021/12/29 01:06:19;;;;;;;42.05;23.60;;;;;;;;;;10011707;29;20059;-58
2021/12/29 01:11:17;;;;;;;51.47;23.15;;;;;;;;;;10019601;29;20470;-58
2021/12/29 01:16:36;;;;;;;42.47;23.48;;;;;;;;;;9995586;29;20067;-58
2021/12/29 01:21:36;;;;;;;64.45;26.13;;;;;;;;;;9999405;29;20083;-58
2021/12/29 01:26:35;;;;;;;60.42;30.85;;;;;;;;;;9987529;29;20074;-58
2021/12/29 01:31:33;;;;;;;54.95;25.95;;;;;;;;;;9998619;29;20075;-58
2021/12/29 01:36:32;;;;;;;61.80;31.05;;;;;;;;;;9991546;29;20094;-58
2021/12/29 01:41:32;;;;;;;46.75;26.67;;;;;;;;;;9985379;29;20086;-58
2021/12/29 01:46:30;;;;;;;50.70;27.88;;;;;;;;;;9986162;29;20072;-58
2021/12/29 01:51:30;;;;;;;57.65;29.52;;;;;;;;;;9983850;29;20083;-59
2021/12/29 01:56:28;;;;;;;43.05;27.33;;;;;;;;;;9981915;29;20080;-58
2021/12/29 02:01:29;;;;;;;75.82;27.13;;;;;;;;;;9995499;29;20052;-58
2021/12/29 02:06:27;;;;;;;55.92;25.52;;;;;;;;;;9986795;29;20078;-59
2021/12/29 02:11:29;;;;;;;63.00;26.85;;;;;;;;;;10008966;29;20082;-59
2021/12/29 02:16:29;;;;;;;57.15;28.20;;;;;;;;;;10005671;29;20067;-59
2021/12/29 02:21:30;;;;;;;60.53;33.00;;;;;;;;;;10013685;29;20513;-59
2021/12/29 02:26:29;;;;;;;68.88;26.80;;;;;;;;;;9991029;29;20461;-60
2021/12/29 02:31:28;;;;;;;64.45;32.30;;;;;;;;;;9985233;29;20106;-59
2021/12/29 02:36:27;;;;;;;81.45;40.38;;;;;;;;;;9996193;29;20192;-58
2021/12/29 02:41:27;;;;;;;55.33;26.67;;;;;;;;;;9986618;29;20067;-58
2021/12/29 02:46:26;;;;;;;70.63;29.00;;;;;;;;;;9984731;29;20086;-58
2021/12/29 02:51:25;;;;;;;80.60;29.63;;;;;;;;;;9985016;29;20075;-58
2021/12/29 02:56:23;;;;;;;58.65;28.08;;;;;;;;;;9989107;29;20076;-58
2021/12/29 03:01:24;;;;;;;74.50;29.08;;;;;;;;;;10008350;29;20505;-58
2021/12/29 03:06:23;;;;;;;55.55;27.50;;;;;;;;;;10024619;29;20055;-59
2021/12/29 03:11:21;;;;;;;53.08;27.85;;;;;;;;;;9986186;29;20485;-59
2021/12/29 03:16:19;;;;;;;54.25;27.25;;;;;;;;;;9995645;29;20110;-58
2021/12/29 03:21:19;;;;;;;51.47;28.65;;;;;;;;;;9982095;29;20076;-55
2021/12/29 03:26:17;;;;;;;51.50;27.42;;;;;;;;;;9985872;29;20087;-58
2021/12/29 03:31:17;;;;;;;57.28;30.50;;;;;;;;;;9984847;29;20090;-58
2021/12/29 03:36:17;;;;;;;55.35;30.48;;;;;;;;;;9989373;29;20082;-59
2021/12/29 03:41:18;;;;;;;45.92;29.77;;;;;;;;;;9988140;29;20076;-58
2021/12/29 03:46:16;;;;;;;50.60;27.90;;;;;;;;;;9980141;29;20785;-59
2021/12/29 03:51:15;;;;;;;50.65;30.95;;;;;;;;;;9997725;29;20075;-59
2021/12/29 03:56:13;;;;;;;65.65;30.95;;;;;;;;;;10003601;29;20072;-59
2021/12/29 04:01:15;;;;;;;50.83;29.10;;;;;;;;;;9998977;29;20087;-59
2021/12/29 04:06:14;;;;;;;54.55;32.10;;;;;;;;;;10000333;29;20093;-58
2021/12/29 04:11:13;;;;;;;52.17;32.05;;;;;;;;;;9986993;29;20465;-58
2021/12/29 04:16:16;;;;;;;53.50;31.83;;;;;;;;;;9988840;29;20083;-59
2021/12/29 04:21:17;;;;;;;49.75;29.48;;;;;;;;;;9989176;29;20074;-59
2021/12/29 04:26:18;;;;;;;51.55;28.95;;;;;;;;;;9988607;29;20075;-59
2021/12/29 04:31:18;;;;;;;72.63;36.28;;;;;;;;;;10001870;29;20091;-59
2021/12/29 04:36:16;;;;;;;60.33;33.10;;;;;;;;;;10000650;29;20993;-59
2021/12/29 04:41:15;;;;;;;53.17;31.20;;;;;;;;;;10023029;29;20071;-59
2021/12/29 04:46:15;;;;;;;54.58;30.60;;;;;;;;;;10017785;29;20171;-59
2021/12/29 04:51:22;;;;;;;52.97;30.95;;;;;;;;;;10021534;29;20453;-59
2021/12/29 04:56:20;;;;;;;49.30;32.22;;;;;;;;;;9986419;29;20091;-59
2021/12/29 05:01:19;;;;;;;49.80;30.85;;;;;;;;;;10014374;29;20071;-59
2021/12/29 05:11:38;;;;;;;56.42;33.38;;;;;;;;;;10019271;29;20064;-57
2021/12/29 05:16:36;;;;;;;52.22;31.38;;;;;;;;;;10025245;29;20540;-59
2021/12/29 05:21:36;;;;;;;49.70;29.27;;;;;;;;;;9990768;29;20082;-59
2021/12/29 05:26:35;;;;;;;49.25;30.63;;;;;;;;;;9986767;29;20079;-59
2021/12/29 05:31:33;;;;;;;53.53;31.88;;;;;;;;;;9985822;29;20095;-59
2021/12/29 05:36:32;;;;;;;53.58;30.83;;;;;;;;;;9981600;29;20076;-59
2021/12/29 05:41:31;;;;;;;50.03;30.45;;;;;;;;;;10008197;29;20067;-59
2021/12/29 05:46:29;;;;;;;49.33;30.48;;;;;;;;;;10019253;29;20079;-59
2021/12/29 05:51:28;;;;;;;60.30;35.28;;;;;;;;;;9992365;29;20079;-60
2021/12/29 05:56:26;;;;;;;59.50;33.88;;;;;;;;;;9992185;29;20101;-59
2021/12/29 06:01:26;;;;;;;58.40;33.83;;;;;;;;;;10009467;29;20461;-59
2021/12/29 06:06:24;;;;;;;47.22;28.75;;;;;;;;;;10006027;29;20075;-59
2021/12/29 06:11:23;;;;;;;51.63;29.23;;;;;;;;;;10005713;29;20071;-59
2021/12/29 06:16:21;;;;;;;54.55;30.98;;;;;;;;;;10005912;29;20083;-59
2021/12/29 06:21:21;;;;;;;53.85;32.00;;;;;;;;;;9978925;29;20067;-59
2021/12/29 06:26:19;;;;;;;59.83;35.15;;;;;;;;;;9987539;29;20072;-59
2021/12/29 06:31:17;;;;;;;56.30;33.20;;;;;;;;;;10016517;29;20552;-59
2021/12/29 06:36:16;;;;;;;49.38;29.05;;;;;;;;;;9988046;29;20455;-59
2021/12/29 06:41:15;;;;;;;52.45;31.90;;;;;;;;;;9984883;29;20060;-59
2021/12/29 06:46:14;;;;;;;61.03;30.05;;;;;;;;;;9979807;29;20071;-59
2021/12/29 06:51:12;;;;;;;59.67;33.70;;;;;;;;;;9995142;29;20072;-59
2021/12/29 06:56:10;;;;;;;54.58;29.17;;;;;;;;;;10015679;29;20474;-58
2021/12/29 07:01:11;;;;;;;53.28;30.00;;;;;;;;;;9991990;29;20502;-59
2021/12/29 07:06:10;;;;;;;60.95;32.88;;;;;;;;;;10007896;29;20068;-54
2021/12/29 07:11:09;;;;;;;55.47;30.20;;;;;;;;;;9997359;29;20078;-59
2021/12/29 07:16:07;;;;;;;55.67;32.13;;;;;;;;;;9990038;29;20083;-59
2021/12/29 07:21:07;;;;;;;54.28;29.88;;;;;;;;;;9986559;29;20106;-58
2021/12/29 07:26:05;;;;;;;66.60;39.97;;;;;;;;;;9986593;29;20075;-58
2021/12/29 07:31:04;;;;;;;58.95;36.53;;;;;;;;;;9994288;29;20083;-59
2021/12/29 07:36:02;;;;;;;69.18;39.30;;;;;;;;;;9977294;29;20526;-59
2021/12/29 07:41:04;;;;;;;67.47;38.78;;;;;;;;;;9988089;29;20479;-59
2021/12/29 07:46:02;;;;;;;65.05;37.38;;;;;;;;;;9989470;29;20076;-59
2021/12/29 07:51:02;;;;;;;67.22;38.40;;;;;;;;;;9986899;29;20454;-59
2021/12/29 07:56:00;;;;;;;74.60;34.80;;;;;;;;;;10010531;29;20087;-58
2021/12/29 08:01:00;;;;;;;72.35;44.60;;;;;;;;;;10014140;29;20118;-58
2021/12/29 08:05:59;;;;;;;75.55;41.08;;;;;;;;;;10021410;29;20423;-59
2021/12/29 08:10:57;;;;;;;77.63;44.75;;;;;;;;;;10033725;29;20063;-59
2021/12/29 08:15:55;;;;;;;79.88;44.60;;;;;;;;;;10025367;29;20056;-59
2021/12/29 08:20:55;;;;;;;68.65;40.55;;;;;;;;;;9989862;29;20080;-59
2021/12/29 08:25:53;;;;;;;66.45;41.10;;;;;;;;;;9988497;29;20084;-60
2021/12/29 08:30:52;;;;;;;71.90;39.15;;;;;;;;;;9986516;29;20565;-60
2021/12/29 08:35:50;;;;;;;80.00;46.40;;;;;;;;;;9985983;29;20075;-60
2021/12/29 08:40:51;;;;;;;78.70;38.00;;;;;;;;;;10007539;29;20590;-60
2021/12/29 08:45:49;;;;;;;71.32;37.40;;;;;;;;;;10014694;29;20087;-60
2021/12/29 08:50:48;;;;;;;74.63;35.60;;;;;;;;;;10021348;29;20114;-60
2021/12/29 08:55:48;;;;;;;77.00;42.92;;;;;;;;;;9990764;29;20072;-59
2021/12/29 09:00:47;;;;;;;80.28;41.40;;;;;;;;;;9984602;29;20074;-59
2021/12/29 09:05:46;;;;;;;70.15;37.45;;;;;;;;;;9981334;29;20092;-59
2021/12/29 09:10:45;;;;;;;67.90;38.10;;;;;;;;;;9983437;29;20063;-59
2021/12/29 09:15:43;;;;;;;75.80;38.30;;;;;;;;;;9982688;29;20086;-59
2021/12/29 09:20:46;;;;;;;73.43;38.97;;;;;;;;;;10005479;29;20078;-59
2021/12/29 09:25:46;;;;;;;62.10;36.78;;;;;;;;;;10013809;29;20083;-60
2021/12/29 09:30:45;;;;;;;95.85;41.03;;;;;;;;;;10016803;29;20080;-59
2021/12/29 09:35:47;;;;;;;87.40;38.88;;;;;;;;;;10023562;29;20087;-59
2021/12/29 09:40:46;;;;;;;90.20;42.63;;;;;;;;;;9994134;29;20502;-59
2021/12/29 09:45:45;;;;;;;86.25;46.95;;;;;;;;;;9997394;29;20090;-59
2021/12/29 09:50:45;;;;;;;101.93;49.10;;;;;;;;;;10011639;29;20071;-58
2021/12/29 09:55:46;;;;;;;102.90;48.80;;;;;;;;;;9995759;29;20079;-59
2021/12/29 10:00:45;;;;;;;74.88;41.67;;;;;;;;;;9982613;29;20091;-59
2021/12/29 10:05:45;;;;;;;83.82;41.60;;;;;;;;;;9995112;29;20152;-59
2021/12/29 10:10:47;;;;;;;97.03;48.80;;;;;;;;;;9982766;29;20087;-57
2021/12/29 10:15:46;;;;;;;100.47;56.00;;;;;;;;;;9980845;29;20079;-59
2021/12/29 10:20:46;;;;;;;98.32;52.78;;;;;;;;;;9980754;29;20068;-59
2021/12/29 10:25:46;;;;;;;102.18;54.50;;;;;;;;;;9987051;29;20087;-59
2021/12/29 10:30:44;;;;;;;85.03;44.90;;;;;;;;;;9983512;29;20076;-60
2021/12/29 10:35:42;;;;;;;138.23;82.60;;;;;;;;;;10001396;29;20074;-59
2021/12/29 10:40:40;;;;;;;88.80;52.63;;;;;;;;;;10013335;29;20082;-59
2021/12/29 10:45:42;;;;;;;80.72;44.80;;;;;;;;;;10019065;29;20155;-59
2021/12/29 10:50:41;;;;;;;81.88;43.55;;;;;;;;;;10009807;29;20377;-59
2021/12/29 10:55:39;;;;;;;88.88;53.15;;;;;;;;;;10012493;29;20090;-60
2021/12/29 11:00:39;;;;;;;76.65;47.75;;;;;;;;;;10021721;29;20087;-60
2021/12/29 11:05:41;;;;;;;79.70;44.30;;;;;;;;;;10021715;29;20088;-59
2021/12/29 11:10:39;;;;;;;65.47;40.35;;;;;;;;;;9998120;29;20076;-59
2021/12/29 11:15:41;;;;;;;62.30;38.53;;;;;;;;;;10010903;29;20418;-59
2021/12/29 11:20:40;;;;;;;74.65;42.15;;;;;;;;;;10009886;29;20478;-60
2021/12/29 11:25:39;;;;;;;72.72;45.33;;;;;;;;;;10029460;29;20473;-59
2021/12/29 11:30:40;;;;;;;67.53;41.13;;;;;;;;;;10005568;29;20087;-60
2021/12/29 11:35:40;;;;;;;61.13;39.65;;;;;;;;;;9986904;29;20075;-60
2021/12/29 11:40:41;;;;;;;65.18;39.17;;;;;;;;;;9986866;29;20082;-60
2021/12/29 11:45:40;;;;;;;87.38;48.40;;;;;;;;;;10010492;29;20072;-60
2021/12/29 11:50:40;;;;;;;64.97;39.85;;;;;;;;;;10019339;29;20517;-59
2021/12/29 11:55:43;;;;;;;73.05;43.78;;;;;;;;;;10022149;29;20478;-58
2021/12/29 12:00:42;;;;;;;72.03;46.25;;;;;;;;;;10033059;29;20466;-59
2021/12/29 12:05:42;;;;;;;66.15;43.42;;;;;;;;;;10021946;29;20075;-58
2021/12/29 12:10:42;;;;;;;92.05;53.17;;;;;;;;;;9994671;29;20071;-59
2021/12/29 12:15:41;;;;;;;66.60;41.55;;;;;;;;;;10008862;29;20078;-59
2021/12/29 12:20:45;;;;;;;65.60;41.58;;;;;;;;;;10017305;29;20543;-58
2021/12/29 12:25:45;;;;;;;64.80;39.53;;;;;;;;;;10023739;29;20080;-58
2021/12/29 12:30:44;;;;;;;70.95;43.58;;;;;;;;;;10025330;29;20087;-59
2021/12/29 12:35:44;;;;;;;74.90;49.83;;;;;;;;;;10014054;29;20068;-58
2021/12/29 12:40:43;;;;;;;73.50;46.42;;;;;;;;;;10005929;29;20468;-58
2021/12/29 12:45:44;;;;;;;71.60;45.17;;;;;;;;;;10007816;29;20083;-59
2021/12/29 12:50:44;;;;;;;70.43;43.60;;;;;;;;;;10006665;29;20086;-59
2021/12/29 12:55:44;;;;;;;86.80;56.45;;;;;;;;;;10023999;29;20509;-59
2021/12/29 13:00:45;;;;;;;75.78;41.05;;;;;;;;;;9991557;29;20086;-59
2021/12/29 13:05:45;;;;;;;68.43;37.42;;;;;;;;;;9986073;29;20351;-59
2021/12/29 13:10:45;;;;;;;90.80;54.55;;;;;;;;;;9984737;29;20072;-58
2021/12/29 13:15:47;;;;;;;80.90;48.67;;;;;;;;;;10006594;29;20082;-58
2021/12/29 13:20:47;;;;;;;64.18;41.90;;;;;;;;;;10013904;29;20544;-57
2021/12/29 13:25:45;;;;;;;92.50;59.20;;;;;;;;;;10006368;29;20510;-59
2021/12/29 13:30:45;;;;;;;80.85;51.53;;;;;;;;;;9989168;29;20109;-59
2021/12/29 13:35:46;;;;;;;68.18;39.00;;;;;;;;;;9988336;29;20063;-58
2021/12/29 13:40:46;;;;;;;100.00;58.65;;;;;;;;;;9982959;29;20072;-58
2021/12/29 13:45:47;;;;;;;142.35;89.28;;;;;;;;;;10006326;29;20088;-58
2021/12/29 13:50:56;;;;;;;103.78;62.97;;;;;;;;;;10014906;29;20091;-58
2021/12/29 13:55:56;;;;;;;134.30;76.68;;;;;;;;;;10021555;29;20142;-58
2021/12/29 14:00:55;;;;;;;143.45;85.22;;;;;;;;;;10029679;29;20502;-58
2021/12/29 14:06:00;;;;;;;122.78;56.05;;;;;;;;;;9987091;29;20082;-59
2021/12/29 14:11:00;;;;;;;169.13;70.38;;;;;;;;;;9995201;29;20086;-59
2021/12/29 14:16:03;;;;;;;120.10;53.85;;;;;;;;;;10006321;29;20453;-59
2021/12/29 14:21:11;;;;;;;107.15;53.13;;;;;;;;;;10010790;29;20075;-58
2021/12/29 14:26:12;;;;;;;136.43;58.67;;;;;;;;;;10017504;29;20080;-59
2021/12/29 14:31:13;;;;;;;156.52;57.67;;;;;;;;;;9979653;29;20080;-59
2021/12/29 14:36:13;;;;;;;117.97;62.53;;;;;;;;;;10006552;29;20075;-59
2021/12/29 14:41:19;;;;;;;83.10;43.08;;;;;;;;;;10015226;29;20063;-58
2021/12/29 14:46:18;;;;;;;158.10;86.13;;;;;;;;;;10016837;29;20485;-58
2021/12/29 14:51:17;;;;;;;135.50;72.85;;;;;;;;;;9989257;29;20557;-58
2021/12/29 14:56:17;;;;;;;133.77;72.47;;;;;;;;;;9979526;29;20071;-58
2021/12/29 15:01:18;;;;;;;136.75;76.43;;;;;;;;;;9992312;29;20529;-58
2021/12/29 15:06:26;;;;;;;140.50;67.13;;;;;;;;;;10005486;29;20076;-60
2021/12/29 15:11:25;;;;;;;102.85;55.80;;;;;;;;;;10002764;29;20529;-59
2021/12/29 15:16:25;;;;;;;137.00;79.50;;;;;;;;;;9979526;29;20060;-59
2021/12/29 15:21:23;;;;;;;118.35;73.22;;;;;;;;;;9969912;29;20067;-58
2021/12/29 15:26:22;;;;;;;103.90;68.13;;;;;;;;;;9979217;29;20521;-59
2021/12/29 15:31:23;;;;;;;82.15;51.20;;;;;;;;;;9980978;29;20480;-59
2021/12/29 15:36:22;;;;;;;72.55;46.17;;;;;;;;;;9977027;29;20498;-59
2021/12/29 15:41:22;;;;;;;86.15;49.70;;;;;;;;;;9977414;29;20498;-59
2021/12/29 15:46:21;;;;;;;125.68;79.75;;;;;;;;;;10007095;29;20557;-58
2021/12/29 15:51:24;;;;;;;81.75;52.50;;;;;;;;;;9981178;29;20481;-59
2021/12/29 15:56:24;;;;;;;129.48;84.88;;;;;;;;;;9990522;29;20074;-59
2021/12/29 16:01:23;;;;;;;126.00;83.50;;;;;;;;;;9999251;29;20079;-58
2021/12/29 16:06:22;;;;;;;123.15;74.72;;;;;;;;;;10016235;29;20083;-59
2021/12/29 16:11:22;;;;;;;110.22;70.32;;;;;;;;;;9985525;29;20067;-58
2021/12/29 16:16:20;;;;;;;85.85;56.00;;;;;;;;;;9998683;29;20453;-58
2021/12/29 16:21:18;;;;;;;76.50;50.83;;;;;;;;;;9980654;29;20106;-58
2021/12/29 16:26:17;;;;;;;77.22;45.15;;;;;;;;;;9975322;29;20128;-58
2021/12/29 16:31:16;;;;;;;101.57;58.10;;;;;;;;;;9981867;29;20079;-58
2021/12/29 16:36:15;;;;;;;180.57;108.32;;;;;;;;;;10008752;29;20074;-59
2021/12/29 16:41:14;;;;;;;161.55;92.32;;;;;;;;;;9992394;29;20083;-59
2021/12/29 16:46:12;;;;;;;106.13;60.38;;;;;;;;;;9989655;29;20072;-56
2021/12/29 16:51:12;;;;;;;141.10;83.97;;;;;;;;;;9992784;29;20172;-57
2021/12/29 16:56:10;;;;;;;98.25;54.85;;;;;;;;;;9996566;29;20079;-58
2021/12/29 17:01:09;;;;;;;97.28;54.08;;;;;;;;;;9995628;29;20119;-56
2021/12/29 17:06:07;;;;;;;106.00;54.78;;;;;;;;;;9985819;29;20075;-58
2021/12/29 17:11:07;;;;;;;97.88;60.78;;;;;;;;;;9986379;29;20079;-59
2021/12/29 17:16:07;;;;;;;106.55;66.53;;;;;;;;;;9978588;29;20075;-56
2021/12/29 17:21:06;;;;;;;127.68;61.22;;;;;;;;;;9974893;29;20099;-58
2021/12/29 17:26:04;;;;;;;141.35;73.18;;;;;;;;;;9977694;29;20481;-59
2021/12/29 17:31:04;;;;;;;139.00;70.15;;;;;;;;;;9982635;29;20087;-54
2021/12/29 17:36:03;;;;;;;140.43;74.07;;;;;;;;;;9989917;29;20103;-52
2021/12/29 17:41:01;;;;;;;99.07;60.25;;;;;;;;;;9977340;29;20063;-59
2021/12/29 17:46:00;;;;;;;223.15;120.20;;;;;;;;;;9981596;29;20082;-59
2021/12/29 17:51:01;;;;;;;84.63;56.17;;;;;;;;;;9991346;29;20067;-59
2021/12/29 17:55:59;;;;;;;59.20;35.75;;;;;;;;;;9996655;29;20076;-59
2021/12/29 18:00:57;;;;;;;113.57;64.55;;;;;;;;;;9973351;29;20510;-59
2021/12/29 18:05:56;;;;;;;93.82;57.67;;;;;;;;;;9974605;29;20095;-59
2021/12/29 18:10:56;;;;;;;93.10;48.83;;;;;;;;;;9975229;29;20335;-59
2021/12/29 18:15:59;;;;;;;50.03;31.88;;;;;;;;;;9982306;29;20079;-59
2021/12/29 18:20:57;;;;;;;95.25;50.10;;;;;;;;;;9984897;29;20086;-59
2021/12/29 18:25:57;;;;;;;87.72;48.53;;;;;;;;;;10007372;29;20481;-59
2021/12/29 18:30:55;;;;;;;115.18;71.07;;;;;;;;;;10014510;29;20106;-59
2021/12/29 18:35:54;;;;;;;98.60;69.85;;;;;;;;;;10017502;29;20086;-59
2021/12/29 18:40:52;;;;;;;32.75;24.50;;;;;;;;;;9991615;29;20102;-59
2021/12/29 18:45:52;;;;;;;50.10;34.78;;;;;;;;;;9995445;29;20534;-58
2021/12/29 18:50:51;;;;;;;94.60;49.88;;;;;;;;;;9984377;29;20072;-59
2021/12/29 18:55:49;;;;;;;61.08;39.47;;;;;;;;;;9984336;29;20080;-59
2021/12/29 19:00:47;;;;;;;70.88;46.17;;;;;;;;;;9984017;29;20072;-60
2021/12/29 19:05:48;;;;;;;56.15;39.45;;;;;;;;;;10007474;29;20067;-59
2021/12/29 19:10:47;;;;;;;104.43;60.50;;;;;;;;;;10020996;29;20075;-58
2021/12/29 19:15:45;;;;;;;143.15;71.97;;;;;;;;;;10028144;29;20310;-59
2021/12/29 19:20:44;;;;;;;86.53;46.00;;;;;;;;;;10001828;29;20072;-59
2021/12/29 19:25:43;;;;;;;123.55;64.82;;;;;;;;;;9987187;29;20079;-59
2021/12/29 19:30:43;;;;;;;93.45;51.78;;;;;;;;;;10000787;29;20514;-58
2021/12/29 19:35:42;;;;;;;74.40;47.05;;;;;;;;;;10001529;29;20076;-59
2021/12/29 19:40:40;;;;;;;55.50;37.10;;;;;;;;;;10000228;29;20498;-60
2021/12/29 19:45:44;;;;;;;77.57;47.80;;;;;;;;;;9988994;29;20087;-59
2021/12/29 19:50:43;;;;;;;68.57;42.83;;;;;;;;;;9991391;29;20545;-60
2021/12/29 19:55:43;;;;;;;47.05;31.17;;;;;;;;;;9993285;29;20079;-60
2021/12/29 20:00:43;;;;;;;57.25;40.55;;;;;;;;;;10010423;29;20071;-60
2021/12/29 20:05:44;;;;;;;45.42;30.15;;;;;;;;;;10018326;29;20133;-59
2021/12/29 20:10:43;;;;;;;59.10;40.17;;;;;;;;;;9997429;29;20087;-59
2021/12/29 20:15:42;;;;;;;43.35;27.30;;;;;;;;;;9988798;29;20113;-58
2021/12/29 20:20:40;;;;;;;36.60;24.48;;;;;;;;;;10006494;29;20072;-58
2021/12/29 20:25:40;;;;;;;46.58;28.80;;;;;;;;;;10017790;29;20071;-59
2021/12/29 20:30:40;;;;;;;33.35;22.02;;;;;;;;;;10023517;29;20522;-58
2021/12/29 20:35:38;;;;;;;69.80;43.17;;;;;;;;;;9992364;29;20491;-59
2021/12/29 20:40:36;;;;;;;29.98;22.17;;;;;;;;;;10007519;29;20079;-59
2021/12/29 20:45:36;;;;;;;70.45;46.83;;;;;;;;;;10013982;29;20075;-58
2021/12/29 20:50:35;;;;;;;89.15;50.65;;;;;;;;;;10022583;29;20084;-58
2021/12/29 20:55:33;;;;;;;99.95;68.20;;;;;;;;;;10028003;29;20105;-59
2021/12/29 21:00:31;;;;;;;77.50;47.22;;;;;;;;;;10001456;29;20079;-59
2021/12/29 21:05:34;;;;;;;28.15;22.10;;;;;;;;;;9987245;29;20083;-59
2021/12/29 21:10:33;;;;;;;38.70;30.30;;;;;;;;;;9987712;29;20082;-58
2021/12/29 21:15:32;;;;;;;66.57;42.90;;;;;;;;;;9986322;29;20056;-59
2021/12/29 21:20:30;;;;;;;58.08;37.15;;;;;;;;;;10014226;29;20067;-58
2021/12/29 21:25:31;;;;;;;60.38;39.55;;;;;;;;;;10014048;29;20078;-58
2021/12/29 21:30:31;;;;;;;59.88;40.45;;;;;;;;;;10021542;29;20079;-59
2021/12/29 21:35:30;;;;;;;66.53;37.63;;;;;;;;;;9986950;29;20108;-59
2021/12/29 21:40:29;;;;;;;52.22;33.38;;;;;;;;;;10017865;29;20071;-57
2021/12/29 21:45:31;;;;;;;49.88;35.95;;;;;;;;;;10011220;29;20495;-58
2021/12/29 21:50:31;;;;;;;56.67;38.08;;;;;;;;;;9993165;29;20087;-58
2021/12/29 21:55:32;;;;;;;61.05;35.42;;;;;;;;;;9984669;29;20087;-58
2021/12/29 22:00:31;;;;;;;43.95;29.70;;;;;;;;;;9985760;29;20494;-58
2021/12/29 22:05:29;;;;;;;34.38;23.27;;;;;;;;;;9985605;29;20075;-58
2021/12/29 22:10:28;;;;;;;29.60;20.63;;;;;;;;;;9995717;29;20072;-58
2021/12/29 22:15:29;;;;;;;64.60;36.28;;;;;;;;;;9984885;29;20087;-56
2021/12/29 22:20:28;;;;;;;88.72;47.55;;;;;;;;;;9985924;29;20098;-57
2021/12/29 22:25:26;;;;;;;66.70;40.53;;;;;;;;;;9984246;29;20088;-57
2021/12/29 22:30:33;;;;;;;79.35;44.22;;;;;;;;;;9997395;29;20080;-58
2021/12/29 22:35:33;;;;;;;76.72;43.75;;;;;;;;;;10013265;29;20063;-58
2021/12/29 22:40:32;;;;;;;48.63;31.15;;;;;;;;;;10014935;29;20071;-58
2021/12/29 22:45:31;;;;;;;38.22;26.90;;;;;;;;;;9991482;29;20072;-58
2021/12/29 22:50:31;;;;;;;59.08;35.47;;;;;;;;;;9984130;29;20080;-58
2021/12/29 22:55:31;;;;;;;38.42;26.63;;;;;;;;;;9983477;29;20490;-58
2021/12/29 23:00:35;;;;;;;31.55;22.80;;;;;;;;;;9986450;29;20116;-58
2021/12/29 23:05:35;;;;;;;35.30;25.33;;;;;;;;;;9997236;29;20091;-58
2021/12/29 23:10:36;;;;;;;25.70;18.13;;;;;;;;;;9981960;29;20080;-59
2021/12/29 23:15:34;;;;;;;26.30;18.88;;;;;;;;;;9992663;29;20084;-58
2021/12/29 23:20:32;;;;;;;29.00;23.08;;;;;;;;;;9984907;29;20537;-60
2021/12/29 23:25:32;;;;;;;20.00;16.88;;;;;;;;;;10005821;29;20079;-59
2021/12/29 23:30:31;;;;;;;18.20;15.55;;;;;;;;;;9996234;29;20099;-58
2021/12/29 23:35:30;;;;;;;22.38;16.75;;;;;;;;;;10017908;29;20072;-59
2021/12/29 23:40:28;;;;;;;21.65;15.77;;;;;;;;;;9988828;29;20076;-58
2021/12/29 23:45:26;;;;;;;16.77;13.25;;;;;;;;;;9996165;29;20075;-58
2021/12/29 23:50:26;;;;;;;20.33;13.40;;;;;;;;;;9996184;29;20125;-58
2021/12/29 23:55:25;;;;;;;46.78;24.27;;;;;;;;;;9990543;29;20512;-58
